Time;durP1;ratioP1;P1;durP2;ratioP2;P2;SDS_P1;SDS_P2;PMS_P1;PMS_P2;Temp;Humidity;BMP_temperature;BMP_pressure;BME280_temperature;BME280_humidity;BME280_pressure;Samples;Min_cycle;Max_cycle;Signal;HPM_P1;HPM_P2
2023/10/29 00:01:12;;;;;;;2.50;2.10;;;12.60;99.90;;;;;;5076297;28;20415;-69
2023/10/29 00:03:39;;;;;;;4.20;1.90;;;12.60;99.90;;;;;;5073890;28;20424;-68
2023/10/29 00:06:06;;;;;;;2.55;1.90;;;12.60;99.90;;;;;;5069488;28;20454;-69
2023/10/29 00:08:34;;;;;;;3.28;2.10;;;12.60;99.90;;;;;;5075441;28;20411;-69
2023/10/29 00:11:01;;;;;;;2.47;1.60;;;12.60;99.90;;;;;;5070534;28;20899;-69
2023/10/29 00:13:28;;;;;;;3.60;1.90;;;12.60;99.90;;;;;;5076244;28;20404;-69
2023/10/29 00:15:54;;;;;;;3.60;1.93;;;12.60;99.90;;;;;;5073810;28;20905;-69
2023/10/29 00:18:21;;;;;;;3.20;1.70;;;12.60;99.90;;;;;;5077960;28;20418;-70
2023/10/29 00:20:48;;;;;;;3.30;1.90;;;12.60;99.90;;;;;;5073520;28;20575;-69
2023/10/29 00:23:14;;;;;;;2.37;1.57;;;12.60;99.90;;;;;;5071250;28;20450;-69
2023/10/29 00:25:42;;;;;;;2.75;1.80;;;12.70;99.90;;;;;;5070786;28;20415;-69
2023/10/29 00:28:11;;;;;;;2.10;1.50;;;12.70;99.90;;;;;;5071665;28;20407;-69
2023/10/29 00:30:38;;;;;;;2.87;1.60;;;12.70;99.90;;;;;;5075049;28;20893;-69
2023/10/29 00:33:06;;;;;;;2.60;1.40;;;12.70;99.90;;;;;;5072359;28;20436;-68
2023/10/29 00:35:33;;;;;;;2.00;1.40;;;12.70;99.90;;;;;;5069715;28;20805;-69
2023/10/29 00:37:59;;;;;;;3.40;1.60;;;12.70;99.90;;;;;;5070355;28;20909;-69
2023/10/29 00:40:30;;;;;;;2.70;1.70;;;12.70;99.90;;;;;;5076901;28;20415;-69
2023/10/29 00:42:58;;;;;;;3.78;2.40;;;12.70;99.90;;;;;;5069958;28;20457;-71
2023/10/29 00:45:25;;;;;;;3.15;1.90;;;12.70;99.90;;;;;;5078035;28;20411;-67
2023/10/29 00:47:52;;;;;;;2.83;1.70;;;12.70;99.90;;;;;;5075465;28;20415;-70
2023/10/29 00:50:19;;;;;;;2.35;1.48;;;12.70;99.90;;;;;;5072512;28;20668;-69
2023/10/29 00:52:46;;;;;;;2.53;1.55;;;12.70;99.90;;;;;;5069686;28;20411;-69
2023/10/29 00:55:13;;;;;;;3.30;1.80;;;12.70;99.90;;;;;;5072821;28;20475;-70
2023/10/29 00:57:40;;;;;;;3.70;1.90;;;12.70;99.90;;;;;;5077577;28;20423;-69
2023/10/29 01:00:10;;;;;;;3.03;1.50;;;12.70;99.90;;;;;;5075762;28;20410;-69
2023/10/29 01:02:37;;;;;;;2.60;1.50;;;12.70;99.90;;;;;;5071338;28;20443;-69
2023/10/29 01:05:05;;;;;;;2.80;1.70;;;12.70;99.90;;;;;;5077699;28;20684;-69
2023/10/29 01:07:33;;;;;;;3.00;1.70;;;12.80;99.90;;;;;;5070405;28;20936;-69
2023/10/29 01:10:00;;;;;;;2.90;1.40;;;12.80;99.90;;;;;;5072561;28;20408;-68
2023/10/29 01:12:27;;;;;;;1.70;1.10;;;12.90;99.90;;;;;;5072093;28;20416;-69
2023/10/29 01:14:54;;;;;;;2.80;1.23;;;13.00;99.90;;;;;;5070836;28;20407;-69
2023/10/29 01:17:23;;;;;;;3.30;1.30;;;13.10;99.90;;;;;;5071998;28;20490;-71
2023/10/29 01:19:50;;;;;;;2.20;1.00;;;13.20;99.90;;;;;;5074932;28;20424;-71
2023/10/29 01:22:17;;;;;;;3.17;1.50;;;13.30;99.90;;;;;;5071764;28;21099;-70
2023/10/29 01:24:44;;;;;;;3.20;1.25;;;13.40;99.90;;;;;;5074228;28;20439;-69
2023/10/29 01:27:11;;;;;;;2.20;1.17;;;13.50;99.90;;;;;;5071241;28;20431;-68
2023/10/29 01:29:38;;;;;;;2.67;1.20;;;13.60;99.90;;;;;;5069260;28;20432;-68
2023/10/29 01:32:05;;;;;;;2.67;1.25;;;13.70;99.90;;;;;;5068432;28;20419;-70
2023/10/29 01:34:33;;;;;;;1.50;1.00;;;13.80;99.90;;;;;;5076120;28;20423;-68
2023/10/29 01:37:00;;;;;;;1.48;1.00;;;13.80;99.90;;;;;;5084241;28;20432;-68
2023/10/29 01:39:26;;;;;;;1.85;0.90;;;13.90;99.90;;;;;;5087585;28;20414;-69
2023/10/29 01:41:55;;;;;;;1.90;0.90;;;13.90;99.90;;;;;;5082340;28;20416;-69
2023/10/29 01:44:23;;;;;;;1.45;0.90;;;14.00;99.90;;;;;;5070766;28;20436;-69
2023/10/29 01:46:50;;;;;;;1.85;0.90;;;14.00;99.90;;;;;;5070378;28;20845;-70
2023/10/29 01:49:17;;;;;;;2.00;1.00;;;14.00;99.90;;;;;;5068340;28;20478;-69
2023/10/29 01:51:45;;;;;;;1.92;0.90;;;14.00;99.90;;;;;;5068615;28;20439;-70
2023/10/29 01:54:11;;;;;;;2.78;1.30;;;14.00;99.90;;;;;;5069761;28;20412;-70
2023/10/29 01:56:39;;;;;;;1.42;0.85;;;14.10;99.90;;;;;;5069354;28;20419;-71
2023/10/29 01:59:05;;;;;;;2.45;0.93;;;14.10;99.90;;;;;;5069968;28;20419;-70
2023/10/29 02:01:32;;;;;;;1.60;1.00;;;14.10;99.90;;;;;;5069244;28;20426;-71
2023/10/29 02:03:59;;;;;;;1.95;0.90;;;14.10;99.90;;;;;;5071003;28;20436;-70
2023/10/29 02:06:26;;;;;;;2.17;1.00;;;14.10;99.90;;;;;;5069178;28;20412;-68
2023/10/29 02:08:54;;;;;;;1.95;0.93;;;14.20;99.90;;;;;;5074315;28;20426;-69
2023/10/29 02:11:21;;;;;;;2.20;1.10;;;14.20;99.90;;;;;;5068544;28;20483;-68
2023/10/29 02:13:47;;;;;;;2.40;1.10;;;14.10;99.90;;;;;;5074787;28;20410;-71
2023/10/29 02:16:14;;;;;;;2.25;1.15;;;13.90;99.90;;;;;;5069058;28;20791;-69
2023/10/29 02:18:41;;;;;;;2.10;1.35;;;13.80;99.90;;;;;;5067322;28;20439;-70
2023/10/29 02:21:07;;;;;;;1.60;0.75;;;13.60;99.90;;;;;;5072798;28;20915;-68
2023/10/29 02:23:35;;;;;;;2.40;0.90;;;13.50;99.90;;;;;;5072905;28;20428;-68
2023/10/29 02:26:02;;;;;;;3.27;1.10;;;13.40;99.90;;;;;;5074391;28;20788;-69
2023/10/29 02:28:29;;;;;;;2.50;1.30;;;13.40;99.90;;;;;;5070022;28;20413;-68
2023/10/29 02:30:56;;;;;;;3.10;1.10;;;13.40;99.90;;;;;;5068094;28;20835;-69
2023/10/29 02:33:22;;;;;;;2.90;1.50;;;13.30;99.90;;;;;;5060681;28;20520;-70
2023/10/29 02:35:49;;;;;;;1.60;1.00;;;13.20;99.90;;;;;;5074645;28;20420;-69
2023/10/29 02:38:16;;;;;;;2.60;1.10;;;13.20;99.90;;;;;;5069736;28;20451;-71
2023/10/29 02:40:45;;;;;;;1.92;1.20;;;13.30;99.90;;;;;;5063327;28;20412;-68
2023/10/29 02:43:13;;;;;;;2.90;1.30;;;13.30;99.90;;;;;;5068031;28;20418;-69
2023/10/29 02:45:40;;;;;;;3.53;1.20;;;13.20;99.90;;;;;;5068586;28;20431;-69
2023/10/29 02:48:07;;;;;;;1.80;1.00;;;13.30;99.90;;;;;;5067724;28;20414;-69
2023/10/29 02:50:34;;;;;;;1.90;1.10;;;13.30;99.90;;;;;;5067147;28;20933;-68
2023/10/29 02:53:01;;;;;;;2.35;1.10;;;13.30;99.90;;;;;;5069698;28;20431;-70
2023/10/29 02:55:27;;;;;;;1.67;1.13;;;13.40;99.90;;;;;;5068434;28;20411;-68
2023/10/29 02:57:55;;;;;;;2.92;1.33;;;13.40;99.90;;;;;;5068162;28;20802;-70
2023/10/29 03:00:23;;;;;;;1.80;1.00;;;13.40;99.90;;;;;;5068662;28;20917;-69
2023/10/29 03:02:49;;;;;;;2.50;0.90;;;13.30;99.90;;;;;;5067706;28;20473;-68
2023/10/29 03:05:16;;;;;;;2.00;1.20;;;13.40;99.90;;;;;;5074968;28;20426;-70
2023/10/29 03:07:43;;;;;;;2.30;1.10;;;13.40;99.90;;;;;;5069575;28;20918;-70
2023/10/29 03:10:10;;;;;;;2.55;0.95;;;13.40;99.90;;;;;;5076237;28;20691;-69
2023/10/29 03:12:37;;;;;;;1.95;0.93;;;13.40;99.90;;;;;;5067243;28;20959;-70
2023/10/29 03:15:06;;;;;;;1.70;0.90;;;13.50;99.90;;;;;;5068972;28;20410;-70
2023/10/29 03:17:32;;;;;;;1.30;0.80;;;13.60;99.90;;;;;;5072567;28;20917;-71
2023/10/29 03:19:59;;;;;;;1.33;0.90;;;13.50;99.90;;;;;;5068563;28;20438;-69
2023/10/29 03:22:26;;;;;;;2.38;0.90;;;13.60;99.90;;;;;;5067437;28;20847;-68
2023/10/29 03:24:52;;;;;;;3.03;0.80;;;13.60;99.90;;;;;;5071227;28;20432;-69
2023/10/29 03:27:19;;;;;;;1.88;0.82;;;13.70;99.90;;;;;;5068188;28;20794;-68
2023/10/29 03:29:46;;;;;;;1.50;0.90;;;13.70;99.90;;;;;;5071847;28;20419;-68
2023/10/29 03:32:14;;;;;;;2.00;0.90;;;13.70;99.90;;;;;;5072940;28;20413;-69
2023/10/29 03:34:40;;;;;;;2.30;0.80;;;13.70;99.90;;;;;;5076181;28;20438;-69
2023/10/29 03:37:07;;;;;;;1.20;0.80;;;13.70;99.90;;;;;;5074379;28;20553;-69
2023/10/29 03:39:34;;;;;;;1.20;0.80;;;13.80;99.90;;;;;;5078123;28;20407;-68
2023/10/29 03:42:02;;;;;;;1.63;0.80;;;13.70;99.90;;;;;;5070880;28;20425;-69
2023/10/29 03:44:29;;;;;;;1.38;0.80;;;13.80;99.90;;;;;;5079319;28;20427;-69
2023/10/29 03:46:56;;;;;;;2.30;0.63;;;13.90;99.90;;;;;;5074027;28;20778;-69
2023/10/29 03:49:24;;;;;;;1.52;0.70;;;13.90;99.90;;;;;;5070353;28;20427;-69
2023/10/29 03:51:50;;;;;;;1.60;0.90;;;13.90;99.90;;;;;;5080613;28;20410;-69
2023/10/29 03:54:17;;;;;;;1.38;0.80;;;13.90;99.90;;;;;;5073943;28;20905;-71
2023/10/29 03:56:44;;;;;;;1.90;0.70;;;13.90;99.90;;;;;;5071496;28;20412;-69
2023/10/29 03:59:10;;;;;;;1.50;0.90;;;13.80;99.90;;;;;;5071829;28;20436;-69
2023/10/29 04:01:36;;;;;;;1.90;0.90;;;13.80;99.90;;;;;;5077687;28;20917;-70
2023/10/29 04:04:04;;;;;;;2.50;1.10;;;13.90;99.90;;;;;;5070426;28;20424;-69
2023/10/29 04:06:32;;;;;;;2.50;1.00;;;13.80;99.90;;;;;;5068064;28;20441;-68
2023/10/29 04:08:59;;;;;;;1.75;0.82;;;13.80;99.90;;;;;;5070883;28;20436;-69
2023/10/29 04:11:26;;;;;;;2.47;0.87;;;13.80;99.90;;;;;;5071101;28;20419;-69
2023/10/29 04:13:52;;;;;;;1.70;0.70;;;13.80;99.90;;;;;;5071553;28;20917;-68
2023/10/29 04:16:19;;;;;;;1.48;0.82;;;13.80;99.90;;;;;;5071863;28;20435;-69
2023/10/29 04:18:46;;;;;;;1.02;0.80;;;13.80;99.90;;;;;;5073850;28;20833;-70
2023/10/29 04:21:12;;;;;;;1.33;0.90;;;13.90;99.90;;;;;;5070971;28;20451;-70
2023/10/29 04:23:41;;;;;;;1.48;0.80;;;13.90;99.90;;;;;;5112193;22;20454;-69
2023/10/29 04:26:07;;;;;;;2.00;0.80;;;13.80;99.90;;;;;;5102922;28;20407;-69
2023/10/29 04:28:34;;;;;;;1.50;0.70;;;13.80;99.90;;;;;;5104757;28;20431;-70
2023/10/29 04:31:01;;;;;;;1.52;0.70;;;13.90;99.90;;;;;;5106033;28;20431;-71
2023/10/29 04:33:28;;;;;;;1.70;1.00;;;13.80;99.90;;;;;;5104456;27;20888;-69
2023/10/29 04:35:55;;;;;;;1.70;1.00;;;13.90;99.90;;;;;;5105278;28;20546;-69
2023/10/29 04:38:21;;;;;;;1.30;0.80;;;13.90;99.90;;;;;;5116627;27;20406;-69
2023/10/29 04:40:50;;;;;;;2.42;0.90;;;13.90;99.90;;;;;;5111304;27;20526;-69
2023/10/29 04:43:17;;;;;;;1.52;0.80;;;14.00;99.90;;;;;;5104391;27;20453;-69
2023/10/29 04:45:44;;;;;;;1.65;0.90;;;14.00;99.90;;;;;;5113897;27;20425;-70
2023/10/29 04:48:10;;;;;;;1.70;1.10;;;14.10;99.90;;;;;;5114007;27;20424;-69
2023/10/29 04:50:37;;;;;;;2.10;0.70;;;14.10;99.90;;;;;;5104952;27;20420;-69
2023/10/29 04:53:04;;;;;;;3.13;0.80;;;14.10;99.90;;;;;;5106755;27;20411;-70
2023/10/29 04:55:31;;;;;;;1.92;0.80;;;14.10;99.90;;;;;;5103176;27;20406;-69
2023/10/29 04:57:59;;;;;;;1.50;0.70;;;14.20;99.90;;;;;;5113216;27;20423;-69
2023/10/29 05:00:26;;;;;;;2.30;1.00;;;14.20;99.90;;;;;;5102837;27;20413;-70
2023/10/29 05:02:52;;;;;;;1.50;1.10;;;14.20;99.90;;;;;;5105840;27;21923;-69
2023/10/29 05:05:19;;;;;;;2.10;0.98;;;14.20;99.90;;;;;;5104114;28;20431;-70
2023/10/29 05:07:46;;;;;;;2.60;0.90;;;14.30;99.90;;;;;;5111086;27;20406;-68
2023/10/29 05:10:14;;;;;;;1.80;0.70;;;14.30;99.90;;;;;;5120307;27;20427;-69
2023/10/29 05:12:41;;;;;;;2.20;0.80;;;14.30;99.90;;;;;;5118764;27;20414;-69
2023/10/29 05:15:12;;;;;;;1.70;0.80;;;14.30;99.90;;;;;;5116868;27;20421;-70
2023/10/29 05:17:40;;;;;;;3.30;0.90;;;14.30;99.90;;;;;;5110068;27;20645;-70
2023/10/29 05:20:09;;;;;;;2.40;0.70;;;14.30;99.90;;;;;;5105111;28;20484;-69
2023/10/29 05:22:36;;;;;;;2.22;0.80;;;14.40;99.90;;;;;;5112888;27;20415;-70
2023/10/29 05:25:03;;;;;;;1.45;0.70;;;14.40;99.90;;;;;;5109068;27;20538;-70
2023/10/29 05:27:30;;;;;;;1.60;0.70;;;14.40;99.90;;;;;;5114527;27;20406;-70
2023/10/29 05:29:58;;;;;;;1.40;0.80;;;14.50;99.90;;;;;;5114053;27;20478;-69
2023/10/29 05:32:26;;;;;;;2.08;0.77;;;14.50;99.90;;;;;;5115735;27;20509;-69
2023/10/29 05:34:53;;;;;;;1.85;0.70;;;14.50;99.90;;;;;;5117972;27;20403;-69
2023/10/29 05:37:20;;;;;;;2.60;0.90;;;14.50;99.90;;;;;;5119983;27;20404;-70
2023/10/29 05:39:46;;;;;;;2.20;0.70;;;14.50;99.90;;;;;;5116900;27;20426;-69
2023/10/29 05:42:14;;;;;;;2.70;0.90;;;14.50;99.90;;;;;;5108044;27;20498;-68
2023/10/29 05:44:41;;;;;;;2.30;0.80;;;14.40;99.90;;;;;;5118755;27;20928;-69
2023/10/29 05:47:07;;;;;;;1.70;0.80;;;14.40;99.90;;;;;;5107513;27;20469;-70
2023/10/29 05:49:35;;;;;;;1.67;0.80;;;14.40;99.90;;;;;;5108876;27;20493;-71
2023/10/29 05:52:02;;;;;;;1.98;0.70;;;14.40;99.90;;;;;;5104736;27;20447;-70
2023/10/29 05:54:29;;;;;;;1.40;0.70;;;14.40;99.90;;;;;;5110848;27;20827;-70
2023/10/29 05:56:56;;;;;;;2.10;0.80;;;14.40;99.90;;;;;;5109460;27;20400;-70
2023/10/29 05:59:23;;;;;;;1.60;0.70;;;14.40;99.90;;;;;;5120871;27;20418;-70
2023/10/29 06:01:50;;;;;;;1.70;0.70;;;14.40;99.90;;;;;;5108671;27;20637;-70
2023/10/29 06:04:16;;;;;;;2.60;0.70;;;14.40;99.90;;;;;;5100872;28;20439;-71
2023/10/29 06:06:44;;;;;;;1.33;0.60;;;14.40;99.90;;;;;;5109306;27;20764;-69
2023/10/29 06:09:11;;;;;;;1.80;0.70;;;14.40;99.90;;;;;;5118310;27;20421;-70
2023/10/29 06:11:41;;;;;;;1.20;0.73;;;14.40;99.90;;;;;;5107318;27;20887;-72
2023/10/29 06:14:08;;;;;;;2.60;0.90;;;14.40;99.90;;;;;;5105834;27;20447;-72
2023/10/29 06:16:35;;;;;;;2.10;0.80;;;14.40;99.90;;;;;;5110198;27;20431;-70
2023/10/29 06:19:02;;;;;;;2.90;0.80;;;14.40;99.90;;;;;;5109985;28;20414;-71
2023/10/29 06:21:29;;;;;;;2.70;0.80;;;14.30;99.90;;;;;;5122794;27;20410;-69
2023/10/29 06:23:57;;;;;;;2.33;0.90;;;14.30;99.90;;;;;;5122686;27;20418;-69
2023/10/29 06:26:24;;;;;;;2.57;0.80;;;14.30;99.90;;;;;;5107537;27;20436;-70
2023/10/29 06:28:51;;;;;;;2.00;0.90;;;14.30;99.90;;;;;;5111057;28;20400;-70
2023/10/29 06:31:18;;;;;;;2.55;1.13;;;14.30;99.90;;;;;;5102739;28;20959;-69
2023/10/29 06:33:44;;;;;;;2.27;0.70;;;14.30;99.90;;;;;;5116954;28;20408;-69
2023/10/29 06:36:11;;;;;;;2.22;1.00;;;14.30;99.90;;;;;;5114274;28;20400;-70
2023/10/29 06:38:38;;;;;;;1.90;0.80;;;14.30;99.90;;;;;;5120890;28;20418;-69
2023/10/29 06:41:06;;;;;;;2.80;0.90;;;14.20;99.90;;;;;;5120925;27;20956;-69
2023/10/29 06:43:34;;;;;;;2.17;0.70;;;14.20;99.90;;;;;;5107048;28;20419;-70
2023/10/29 06:46:01;;;;;;;1.90;1.10;;;14.20;99.90;;;;;;5110019;28;20430;-71
2023/10/29 06:48:28;;;;;;;2.13;0.70;;;14.10;99.90;;;;;;5102239;28;20414;-71
2023/10/29 06:50:55;;;;;;;2.38;0.75;;;14.10;99.90;;;;;;5117821;27;20566;-70
2023/10/29 06:53:21;;;;;;;1.80;0.73;;;14.10;99.90;;;;;;5115306;28;20550;-70
2023/10/29 06:55:48;;;;;;;2.53;0.80;;;14.10;99.90;;;;;;5091587;28;20402;-69
2023/10/29 06:58:16;;;;;;;2.60;1.00;;;14.00;99.90;;;;;;5117512;28;20490;-69
2023/10/29 07:00:43;;;;;;;1.60;0.70;;;14.00;99.90;;;;;;5093240;28;20961;-69
2023/10/29 07:03:09;;;;;;;2.42;0.80;;;14.00;99.90;;;;;;5112593;28;20404;-69
2023/10/29 07:05:38;;;;;;;2.65;0.75;;;14.00;99.90;;;;;;5112597;27;21302;-69
2023/10/29 07:08:05;;;;;;;2.30;0.93;;;14.00;99.90;;;;;;5119478;27;20410;-69
2023/10/29 07:10:32;;;;;;;2.17;0.60;;;14.00;99.90;;;;;;5120666;27;20406;-66
2023/10/29 07:12:58;;;;;;;2.05;0.57;;;14.00;99.90;;;;;;5100274;27;20452;-70
2023/10/29 07:15:27;;;;;;;1.40;0.70;;;14.00;99.90;;;;;;5102319;27;20416;-69
2023/10/29 07:17:53;;;;;;;2.90;1.20;;;14.00;99.90;;;;;;5102598;27;20451;-70
2023/10/29 07:20:20;;;;;;;2.30;1.00;;;14.00;99.90;;;;;;5112666;27;20423;-70
2023/10/29 07:22:47;;;;;;;2.40;0.63;;;14.00;99.90;;;;;;5112197;27;20410;-67
2023/10/29 07:25:13;;;;;;;1.50;0.70;;;14.00;99.90;;;;;;5113951;27;20433;-71
2023/10/29 07:27:40;;;;;;;2.00;0.80;;;14.00;99.90;;;;;;5113302;27;20431;-69
2023/10/29 07:30:09;;;;;;;2.42;0.70;;;14.00;99.90;;;;;;5098765;28;20539;-69
2023/10/29 07:32:37;;;;;;;1.90;0.70;;;14.00;99.90;;;;;;5105094;28;20427;-68
2023/10/29 07:35:05;;;;;;;2.03;0.60;;;14.00;99.90;;;;;;5116867;27;20418;-67
2023/10/29 07:37:31;;;;;;;1.50;0.60;;;13.90;99.90;;;;;;5115381;27;20402;-68
2023/10/29 07:39:58;;;;;;;1.73;0.70;;;13.90;99.90;;;;;;5122265;27;20570;-67
2023/10/29 07:42:25;;;;;;;1.90;0.90;;;13.80;99.90;;;;;;5106452;27;20576;-70
2023/10/29 07:44:52;;;;;;;1.30;0.80;;;13.80;99.90;;;;;;5109547;27;20473;-69
2023/10/29 07:47:19;;;;;;;1.73;0.80;;;13.80;99.90;;;;;;5106270;27;20439;-69
2023/10/29 07:49:47;;;;;;;1.93;0.80;;;13.80;99.90;;;;;;5107188;28;20431;-67
2023/10/29 07:52:13;;;;;;;1.63;0.80;;;13.80;99.90;;;;;;5115696;27;20501;-67
2023/10/29 07:54:41;;;;;;;1.40;0.70;;;13.80;99.90;;;;;;5114039;27;20418;-68
2023/10/29 07:57:08;;;;;;;1.95;0.80;;;13.90;99.90;;;;;;5107590;27;20521;-70
2023/10/29 07:59:34;;;;;;;1.60;0.70;;;13.90;99.90;;;;;;5107143;27;20430;-67
2023/10/29 08:02:01;;;;;;;1.90;0.90;;;14.00;99.90;;;;;;5109265;27;20446;-67
2023/10/29 08:04:28;;;;;;;1.38;0.60;;;14.20;99.90;;;;;;5108788;27;20503;-68
2023/10/29 08:06:57;;;;;;;1.75;0.80;;;14.30;99.90;;;;;;5114693;27;20422;-67
2023/10/29 08:09:23;;;;;;;1.90;0.75;;;14.50;99.90;;;;;;5114694;27;20410;-67
2023/10/29 08:11:50;;;;;;;1.63;0.60;;;14.70;99.90;;;;;;5107352;27;20434;-68
2023/10/29 08:14:17;;;;;;;1.40;0.70;;;14.90;99.90;;;;;;5103191;27;20427;-68
2023/10/29 08:16:43;;;;;;;2.10;0.90;;;15.00;98.70;;;;;;5103087;27;20424;-68
2023/10/29 08:19:10;;;;;;;2.35;0.70;;;15.00;98.10;;;;;;5103370;28;20423;-69
2023/10/29 08:21:37;;;;;;;1.65;0.70;;;15.00;97.90;;;;;;5108457;27;20430;-68
2023/10/29 08:24:06;;;;;;;2.70;0.70;;;15.00;98.10;;;;;;5118935;27;20495;-69
2023/10/29 08:26:33;;;;;;;2.05;0.90;;;14.90;98.30;;;;;;5111415;27;20437;-68
2023/10/29 08:29:00;;;;;;;1.60;0.80;;;14.90;97.80;;;;;;5114197;27;20465;-68
2023/10/29 08:31:26;;;;;;;1.98;0.80;;;14.90;98.20;;;;;;5103914;27;20494;-69
2023/10/29 08:33:54;;;;;;;1.40;0.68;;;14.90;97.90;;;;;;5096871;28;20428;-68
2023/10/29 08:36:21;;;;;;;1.70;0.70;;;14.90;98.20;;;;;;5116581;27;20408;-69
2023/10/29 08:38:48;;;;;;;1.60;0.63;;;14.90;98.30;;;;;;5095434;27;20428;-69
2023/10/29 08:41:17;;;;;;;1.27;0.60;;;14.90;98.50;;;;;;5098488;27;20437;-68
2023/10/29 08:43:44;;;;;;;2.10;0.70;;;14.90;98.60;;;;;;5098785;27;20429;-68
2023/10/29 08:46:11;;;;;;;2.05;0.80;;;14.90;98.30;;;;;;5088712;28;20517;-68
2023/10/29 08:48:38;;;;;;;1.30;0.68;;;14.90;98.70;;;;;;5097315;27;20497;-68
2023/10/29 08:51:05;;;;;;;1.80;0.70;;;14.90;98.60;;;;;;5090814;28;20620;-69
2023/10/29 08:53:31;;;;;;;1.70;0.60;;;14.90;98.80;;;;;;5102644;27;20423;-68
2023/10/29 08:55:58;;;;;;;1.83;0.80;;;14.90;98.40;;;;;;5108548;27;20430;-69
2023/10/29 08:58:26;;;;;;;1.98;0.63;;;15.00;98.00;;;;;;5089634;27;20421;-70
2023/10/29 09:00:57;;;;;;;1.45;0.60;;;15.00;97.90;;;;;;5096697;27;20793;-70
2023/10/29 09:03:24;;;;;;;2.17;0.80;;;15.00;97.90;;;;;;5100710;27;20418;-68
2023/10/29 09:05:51;;;;;;;2.50;0.80;;;15.00;98.10;;;;;;5085590;28;20536;-69
2023/10/29 09:08:18;;;;;;;1.60;0.50;;;15.00;98.30;;;;;;5093264;27;20740;-65
2023/10/29 09:10:45;;;;;;;1.70;0.80;;;15.00;98.10;;;;;;5091213;28;20443;-65
2023/10/29 09:13:12;;;;;;;2.08;0.63;;;15.00;98.50;;;;;;5111664;27;20430;-66
2023/10/29 09:15:41;;;;;;;2.05;0.60;;;15.00;98.00;;;;;;5094200;27;20407;-66
2023/10/29 09:18:08;;;;;;;2.42;1.20;;;15.00;97.40;;;;;;5098271;28;20466;-67
2023/10/29 09:20:36;;;;;;;2.40;0.80;;;15.00;97.40;;;;;;5092749;28;20489;-65
2023/10/29 09:23:03;;;;;;;1.27;0.70;;;15.00;96.70;;;;;;5103246;27;20431;-65
2023/10/29 09:25:29;;;;;;;2.00;0.60;;;15.00;97.20;;;;;;5103431;27;20443;-65
2023/10/29 09:27:58;;;;;;;2.30;0.70;;;15.00;96.60;;;;;;5091049;28;20750;-65
2023/10/29 09:30:24;;;;;;;1.83;0.70;;;15.10;96.70;;;;;;5087422;28;20766;-65
2023/10/29 09:32:52;;;;;;;1.27;0.70;;;15.20;96.80;;;;;;5091670;28;20871;-65
2023/10/29 09:35:19;;;;;;;1.75;0.63;;;15.20;96.10;;;;;;5098394;27;20782;-66
2023/10/29 09:37:46;;;;;;;2.05;0.75;;;15.20;95.80;;;;;;5095540;27;20421;-66
2023/10/29 09:40:15;;;;;;;1.83;0.80;;;15.20;95.80;;;;;;5096603;28;20427;-65
2023/10/29 09:42:51;;;;;;;1.98;0.70;;;15.20;94.90;;;;;;5093847;27;20452;-65
2023/10/29 09:45:22;;;;;;;1.95;0.70;;;15.10;95.70;;;;;;5090947;28;20452;-65
2023/10/29 09:47:49;;;;;;;2.83;0.70;;;15.00;95.50;;;;;;5094584;28;20433;-67
2023/10/29 09:50:18;;;;;;;2.08;1.00;;;15.00;95.70;;;;;;5102229;27;20408;-65
2023/10/29 09:52:46;;;;;;;3.67;0.90;;;15.00;95.90;;;;;;5111917;27;20402;-65
2023/10/29 09:55:14;;;;;;;2.50;0.73;;;15.00;95.60;;;;;;5108271;27;20408;-66
2023/10/29 09:57:40;;;;;;;1.60;0.60;;;15.00;96.20;;;;;;5087175;28;20435;-65
2023/10/29 10:00:09;;;;;;;2.03;0.90;;;15.00;95.60;;;;;;5103788;27;20942;-65
2023/10/29 10:02:49;;;;;;;1.98;0.90;;;15.00;96.00;;;;;;5104068;27;20953;-66
2023/10/29 10:05:19;;;;;;;1.80;0.90;;;15.00;95.40;;;;;;5099546;27;20432;-66
2023/10/29 10:07:46;;;;;;;2.65;0.77;;;15.10;95.40;;;;;;5108511;27;20420;-65
2023/10/29 10:10:13;;;;;;;3.65;0.80;;;15.00;95.40;;;;;;5108648;27;20741;-65
2023/10/29 10:12:46;;;;;;;2.08;0.80;;;15.00;95.00;;;;;;5111191;27;20480;-65
2023/10/29 10:15:14;;;;;;;1.40;0.70;;;15.00;95.30;;;;;;5103452;27;20765;-66
2023/10/29 10:17:46;;;;;;;2.65;1.00;;;15.00;95.30;;;;;;5107403;27;20845;-66
2023/10/29 10:20:14;;;;;;;2.15;0.60;;;15.00;95.00;;;;;;5108492;27;20414;-66
2023/10/29 10:22:43;;;;;;;2.30;0.60;;;15.00;95.10;;;;;;5104801;27;20410;-66
2023/10/29 10:25:18;;;;;;;2.03;0.90;;;15.10;95.10;;;;;;5099671;27;20441;-67
2023/10/29 10:27:51;;;;;;;2.47;0.80;;;15.20;95.20;;;;;;5100869;28;20443;-68
2023/10/29 10:30:25;;;;;;;2.20;0.90;;;15.40;94.60;;;;;;5099051;28;20917;-67
2023/10/29 10:32:52;;;;;;;2.67;0.80;;;15.50;94.40;;;;;;5120872;22;20453;-67
2023/10/29 10:35:19;;;;;;;2.90;1.30;;;15.60;93.80;;;;;;5075271;28;20444;-66
2023/10/29 10:37:54;;;;;;;2.05;0.70;;;15.70;93.90;;;;;;5083058;28;20424;-66
2023/10/29 10:40:26;;;;;;;1.27;0.70;;;15.70;93.30;;;;;;5079479;28;20420;-67
2023/10/29 10:42:56;;;;;;;2.50;1.00;;;15.60;94.10;;;;;;5083361;28;20475;-67
2023/10/29 10:45:26;;;;;;;2.25;0.95;;;15.60;94.10;;;;;;5073590;28;20431;-65
2023/10/29 10:47:56;;;;;;;2.40;0.90;;;15.50;94.00;;;;;;5079632;28;20510;-68
2023/10/29 10:50:25;;;;;;;2.55;0.80;;;15.50;94.20;;;;;;5080032;28;20921;-67
2023/10/29 10:52:53;;;;;;;2.57;0.90;;;15.40;94.60;;;;;;5071826;28;20434;-68
2023/10/29 10:55:20;;;;;;;3.30;0.90;;;15.40;94.60;;;;;;5073806;28;20415;-68
2023/10/29 10:57:48;;;;;;;2.10;0.70;;;15.40;95.50;;;;;;5073977;28;20482;-68
2023/10/29 11:00:16;;;;;;;2.20;0.90;;;15.40;95.30;;;;;;5072047;28;20435;-67
2023/10/29 11:02:44;;;;;;;1.80;0.85;;;15.40;95.50;;;;;;5071596;28;20590;-68
2023/10/29 11:05:12;;;;;;;2.70;1.00;;;15.40;95.90;;;;;;5071459;28;20427;-68
2023/10/29 11:07:41;;;;;;;2.35;1.00;;;15.40;96.00;;;;;;5070277;28;20489;-67
2023/10/29 11:10:13;;;;;;;2.35;0.90;;;15.40;96.40;;;;;;5066221;28;20427;-69
2023/10/29 11:12:40;;;;;;;2.30;0.85;;;15.50;96.90;;;;;;5070062;28;20447;-67
2023/10/29 11:15:15;;;;;;;2.88;0.90;;;15.50;96.30;;;;;;5068617;28;20427;-67
2023/10/29 11:17:53;;;;;;;1.42;0.80;;;15.60;96.10;;;;;;5070425;28;20429;-68
2023/10/29 11:20:54;;;;;;;1.80;0.70;;;15.70;95.70;;;;;;5070505;28;20450;-70
2023/10/29 11:23:26;;;;;;;2.87;0.80;;;15.60;96.00;;;;;;5068874;28;20442;-68
2023/10/29 11:26:23;;;;;;;1.80;0.80;;;15.60;96.70;;;;;;5070727;28;20432;-67
2023/10/29 11:28:50;;;;;;;1.13;0.57;;;15.50;97.00;;;;;;5069486;28;20453;-67
2023/10/29 11:31:18;;;;;;;1.13;0.50;;;15.40;97.10;;;;;;5068692;28;20438;-68
2023/10/29 11:33:46;;;;;;;1.30;0.60;;;15.40;97.70;;;;;;5066644;28;20431;-66
2023/10/29 11:36:32;;;;;;;1.60;0.60;;;15.40;97.60;;;;;;5069655;28;20434;-68
2023/10/29 11:39:35;;;;;;;1.77;0.73;;;15.50;97.70;;;;;;5073631;28;20852;-69
2023/10/29 11:42:27;;;;;;;1.40;0.50;;;15.70;97.90;;;;;;5072966;28;20443;-68
2023/10/29 11:45:37;;;;;;;1.20;0.50;;;16.00;96.90;;;;;;5068887;28;20434;-66
2023/10/29 11:48:14;;;;;;;1.42;0.60;;;16.10;96.10;;;;;;5067362;28;20435;-67
2023/10/29 11:50:42;;;;;;;1.20;0.50;;;16.10;96.20;;;;;;5061086;28;20419;-70
2023/10/29 11:53:23;;;;;;;2.20;0.60;;;16.10;95.80;;;;;;5062045;28;20932;-70
2023/10/29 11:55:51;;;;;;;1.45;0.70;;;16.10;96.10;;;;;;5066486;28;20440;-70
2023/10/29 11:58:22;;;;;;;1.20;0.50;;;16.10;96.50;;;;;;5071095;28;20404;-70
2023/10/29 12:00:49;;;;;;;1.20;0.60;;;16.10;96.60;;;;;;5072526;28;20905;-68
2023/10/29 12:03:19;;;;;;;2.00;0.60;;;16.10;96.70;;;;;;5073503;28;20424;-71
2023/10/29 12:05:49;;;;;;;4.18;0.75;;;16.00;96.80;;;;;;5077106;28;20426;-69
2023/10/29 12:08:16;;;;;;;1.92;0.65;;;16.00;97.40;;;;;;5070586;28;20435;-68
2023/10/29 12:10:47;;;;;;;1.42;0.60;;;15.90;97.30;;;;;;5076343;28;20419;-69
2023/10/29 12:13:15;;;;;;;1.30;0.70;;;15.80;96.20;;;;;;5067556;28;20774;-69
2023/10/29 12:15:47;;;;;;;1.40;0.60;;;15.80;96.10;;;;;;5063054;28;20892;-69
2023/10/29 12:18:20;;;;;;;2.20;0.70;;;15.70;96.40;;;;;;5079663;28;20411;-70
2023/10/29 12:20:47;;;;;;;1.50;0.70;;;15.70;96.90;;;;;;5070932;28;20435;-69
2023/10/29 12:23:14;;;;;;;1.30;0.50;;;15.60;96.40;;;;;;5070837;28;20468;-71
2023/10/29 12:25:41;;;;;;;0.90;0.50;;;15.60;96.70;;;;;;5071303;28;20408;-70
2023/10/29 12:28:09;;;;;;;1.30;0.40;;;15.60;96.90;;;;;;5071128;28;20439;-69
2023/10/29 12:30:37;;;;;;;1.70;0.70;;;15.70;96.10;;;;;;5067395;28;20428;-68
2023/10/29 12:33:22;;;;;;;1.20;0.45;;;15.70;95.80;;;;;;5069287;28;20427;-70
2023/10/29 12:35:50;;;;;;;1.10;0.60;;;15.80;95.60;;;;;;5063854;28;20461;-71
2023/10/29 12:38:18;;;;;;;2.13;0.60;;;15.80;95.70;;;;;;5064405;28;20451;-71
2023/10/29 12:41:05;;;;;;;1.60;0.60;;;15.90;95.20;;;;;;5071616;28;20438;-71
2023/10/29 12:43:36;;;;;;;1.90;0.50;;;16.00;95.10;;;;;;5068052;28;20427;-69
2023/10/29 12:46:05;;;;;;;1.52;0.50;;;15.90;94.40;;;;;;5063992;28;20427;-69
2023/10/29 12:48:33;;;;;;;1.75;0.52;;;15.90;94.70;;;;;;5068562;28;20478;-69
2023/10/29 12:51:02;;;;;;;1.33;0.50;;;15.90;95.40;;;;;;5068636;28;20427;-70
2023/10/29 12:53:30;;;;;;;0.80;0.60;;;15.80;95.70;;;;;;5071567;28;20434;-68